sensor_id;sensor_type;location;lat;lon;timestamp;temperature;humidity
58519;DHT22;44310;48.106;12.008;2022-10-22T00:02:26;19.90;91.20
58519;DHT22;44310;48.106;12.008;2022-10-22T00:04:53;19.90;91.20
58519;DHT22;44310;48.106;12.008;2022-10-22T00:07:23;19.90;91.10
58519;DHT22;44310;48.106;12.008;2022-10-22T00:09:50;19.90;91.30
58519;DHT22;44310;48.106;12.008;2022-10-22T00:12:18;19.90;91.30
58519;DHT22;44310;48.106;12.008;2022-10-22T00:14:45;19.90;91.30
58519;DHT22;44310;48.106;12.008;2022-10-22T00:17:13;19.90;91.40
58519;DHT22;44310;48.106;12.008;2022-10-22T00:19:40;19.90;91.50
58519;DHT22;44310;48.106;12.008;2022-10-22T00:22:08;19.90;91.60
58519;DHT22;44310;48.106;12.008;2022-10-22T00:24:36;19.90;91.70
58519;DHT22;44310;48.106;12.008;2022-10-22T00:27:05;20.00;91.70
58519;DHT22;44310;48.106;12.008;2022-10-22T00:29:32;19.90;91.80
58519;DHT22;44310;48.106;12.008;2022-10-22T00:31:59;19.90;91.80
58519;DHT22;44310;48.106;12.008;2022-10-22T00:34:27;19.90;91.80
58519;DHT22;44310;48.106;12.008;2022-10-22T00:36:54;19.90;91.80
58519;DHT22;44310;48.106;12.008;2022-10-22T00:39:23;19.90;91.80
58519;DHT22;44310;48.106;12.008;2022-10-22T00:41:53;19.80;91.80
58519;DHT22;44310;48.106;12.008;2022-10-22T00:47:28;19.80;91.80
58519;DHT22;44310;48.106;12.008;2022-10-22T00:49:57;19.80;91.80
58519;DHT22;44310;48.106;12.008;2022-10-22T00:52:25;19.80;91.80
58519;DHT22;44310;48.106;12.008;2022-10-22T00:54:52;19.80;91.80
58519;DHT22;44310;48.106;12.008;2022-10-22T00:57:20;19.80;91.90
58519;DHT22;44310;48.106;12.008;2022-10-22T00:59:48;19.90;92.10
58519;DHT22;44310;48.106;12.008;2022-10-22T01:02:16;19.90;92.00
58519;DHT22;44310;48.106;12.008;2022-10-22T01:04:43;19.90;92.00
58519;DHT22;44310;48.106;12.008;2022-10-22T01:07:17;19.90;92.00
58519;DHT22;44310;48.106;12.008;2022-10-22T01:10:10;19.90;92.20
58519;DHT22;44310;48.106;12.008;2022-10-22T01:12:50;19.80;92.10
58519;DHT22;44310;48.106;12.008;2022-10-22T01:15:40;19.90;91.80
58519;DHT22;44310;48.106;12.008;2022-10-22T01:21:05;19.90;91.80
58519;DHT22;44310;48.106;12.008;2022-10-22T01:29:11;19.90;91.70
58519;DHT22;44310;48.106;12.008;2022-10-22T01:31:42;19.80;91.70
58519;DHT22;44310;48.106;12.008;2022-10-22T01:34:14;19.80;91.70
58519;DHT22;44310;48.106;12.008;2022-10-22T01:36:44;19.80;91.70
58519;DHT22;44310;48.106;12.008;2022-10-22T01:39:13;19.90;91.80
58519;DHT22;44310;48.106;12.008;2022-10-22T01:41:43;19.80;91.80
58519;DHT22;44310;48.106;12.008;2022-10-22T01:44:28;19.80;91.80
58519;DHT22;44310;48.106;12.008;2022-10-22T01:53:20;19.80;92.00
58519;DHT22;44310;48.106;12.008;2022-10-22T01:55:59;19.80;92.00
58519;DHT22;44310;48.106;12.008;2022-10-22T02:06:43;19.80;92.00
58519;DHT22;44310;48.106;12.008;2022-10-22T02:09:14;19.80;92.00
58519;DHT22;44310;48.106;12.008;2022-10-22T02:11:43;19.80;91.90
58519;DHT22;44310;48.106;12.008;2022-10-22T02:14:11;19.70;91.90
58519;DHT22;44310;48.106;12.008;2022-10-22T02:16:43;19.80;91.90
58519;DHT22;44310;48.106;12.008;2022-10-22T02:19:34;19.80;91.80
58519;DHT22;44310;48.106;12.008;2022-10-22T02:22:04;19.70;91.70
58519;DHT22;44310;48.106;12.008;2022-10-22T02:24:31;19.70;91.70
58519;DHT22;44310;48.106;12.008;2022-10-22T02:29:42;19.80;91.60
58519;DHT22;44310;48.106;12.008;2022-10-22T02:32:17;19.70;91.50
58519;DHT22;44310;48.106;12.008;2022-10-22T02:34:45;19.70;91.50
58519;DHT22;44310;48.106;12.008;2022-10-22T02:37:14;19.70;91.40
58519;DHT22;44310;48.106;12.008;2022-10-22T02:39:42;19.70;91.40
58519;DHT22;44310;48.106;12.008;2022-10-22T02:42:10;19.70;91.30
58519;DHT22;44310;48.106;12.008;2022-10-22T02:44:38;19.70;91.30
58519;DHT22;44310;48.106;12.008;2022-10-22T02:47:05;19.70;91.20
58519;DHT22;44310;48.106;12.008;2022-10-22T02:49:32;19.70;91.20
58519;DHT22;44310;48.106;12.008;2022-10-22T02:52:00;19.70;91.10
58519;DHT22;44310;48.106;12.008;2022-10-22T02:54:27;19.70;91.10
58519;DHT22;44310;48.106;12.008;2022-10-22T02:56:54;19.70;91.10
58519;DHT22;44310;48.106;12.008;2022-10-22T02:59:21;19.70;91.10
58519;DHT22;44310;48.106;12.008;2022-10-22T03:01:48;19.70;91.10
58519;DHT22;44310;48.106;12.008;2022-10-22T03:04:15;19.80;91.10
58519;DHT22;44310;48.106;12.008;2022-10-22T03:06:42;19.70;91.10
58519;DHT22;44310;48.106;12.008;2022-10-22T03:09:10;19.60;91.00
58519;DHT22;44310;48.106;12.008;2022-10-22T03:11:37;19.70;91.00
58519;DHT22;44310;48.106;12.008;2022-10-22T03:14:04;19.70;91.00
58519;DHT22;44310;48.106;12.008;2022-10-22T03:16:31;19.70;91.00
58519;DHT22;44310;48.106;12.008;2022-10-22T03:18:58;19.70;91.00
58519;DHT22;44310;48.106;12.008;2022-10-22T03:21:33;19.80;91.10
58519;DHT22;44310;48.106;12.008;2022-10-22T03:24:05;19.70;91.30
58519;DHT22;44310;48.106;12.008;2022-10-22T03:26:33;19.80;91.10
58519;DHT22;44310;48.106;12.008;2022-10-22T03:29:01;19.80;91.10
58519;DHT22;44310;48.106;12.008;2022-10-22T03:31:28;19.80;91.20
58519;DHT22;44310;48.106;12.008;2022-10-22T03:33:55;19.90;91.30
58519;DHT22;44310;48.106;12.008;2022-10-22T03:36:22;19.80;91.30
58519;DHT22;44310;48.106;12.008;2022-10-22T03:38:49;19.80;91.30
58519;DHT22;44310;48.106;12.008;2022-10-22T03:41:16;19.90;91.30
58519;DHT22;44310;48.106;12.008;2022-10-22T03:43:44;19.90;91.30
58519;DHT22;44310;48.106;12.008;2022-10-22T03:46:15;19.90;91.30
58519;DHT22;44310;48.106;12.008;2022-10-22T03:48:42;19.80;91.20
58519;DHT22;44310;48.106;12.008;2022-10-22T03:51:09;19.90;91.20
58519;DHT22;44310;48.106;12.008;2022-10-22T03:53:37;19.90;91.20
58519;DHT22;44310;48.106;12.008;2022-10-22T03:56:08;19.90;91.20
58519;DHT22;44310;48.106;12.008;2022-10-22T03:58:37;19.90;91.20
58519;DHT22;44310;48.106;12.008;2022-10-22T04:01:10;19.90;91.30
58519;DHT22;44310;48.106;12.008;2022-10-22T04:03:39;19.90;91.30
58519;DHT22;44310;48.106;12.008;2022-10-22T04:06:09;19.90;91.40
58519;DHT22;44310;48.106;12.008;2022-10-22T04:08:41;19.90;91.50
58519;DHT22;44310;48.106;12.008;2022-10-22T04:11:09;19.90;91.60
58519;DHT22;44310;48.106;12.008;2022-10-22T04:13:37;19.90;91.60
58519;DHT22;44310;48.106;12.008;2022-10-22T04:16:12;19.90;91.70
58519;DHT22;44310;48.106;12.008;2022-10-22T04:18:40;19.90;91.70
58519;DHT22;44310;48.106;12.008;2022-10-22T04:21:09;19.90;91.60
58519;DHT22;44310;48.106;12.008;2022-10-22T04:23:37;19.90;91.60
58519;DHT22;44310;48.106;12.008;2022-10-22T04:26:06;19.80;91.60
58519;DHT22;44310;48.106;12.008;2022-10-22T04:28:34;19.90;91.60
58519;DHT22;44310;48.106;12.008;2022-10-22T04:31:07;19.80;91.60
58519;DHT22;44310;48.106;12.008;2022-10-22T04:33:34;19.80;91.60
58519;DHT22;44310;48.106;12.008;2022-10-22T04:36:20;19.80;91.60
58519;DHT22;44310;48.106;12.008;2022-10-22T04:38:58;19.80;91.60
58519;DHT22;44310;48.106;12.008;2022-10-22T04:41:37;19.70;91.50
58519;DHT22;44310;48.106;12.008;2022-10-22T04:44:05;19.70;91.60
58519;DHT22;44310;48.106;12.008;2022-10-22T04:46:39;19.80;91.60
58519;DHT22;44310;48.106;12.008;2022-10-22T04:49:06;19.80;91.60
58519;DHT22;44310;48.106;12.008;2022-10-22T04:51:33;19.80;91.70
58519;DHT22;44310;48.106;12.008;2022-10-22T04:54:00;19.70;91.90
58519;DHT22;44310;48.106;12.008;2022-10-22T04:56:30;19.80;91.60
58519;DHT22;44310;48.106;12.008;2022-10-22T04:59:03;19.70;91.70
58519;DHT22;44310;48.106;12.008;2022-10-22T05:01:35;19.80;91.90
58519;DHT22;44310;48.106;12.008;2022-10-22T05:04:12;19.80;91.90
58519;DHT22;44310;48.106;12.008;2022-10-22T05:06:40;19.80;91.80
58519;DHT22;44310;48.106;12.008;2022-10-22T05:09:14;19.80;91.80
58519;DHT22;44310;48.106;12.008;2022-10-22T05:11:43;19.80;91.70
58519;DHT22;44310;48.106;12.008;2022-10-22T05:14:17;19.80;91.70
58519;DHT22;44310;48.106;12.008;2022-10-22T05:16:44;19.80;91.70
58519;DHT22;44310;48.106;12.008;2022-10-22T05:19:17;19.80;91.70
58519;DHT22;44310;48.106;12.008;2022-10-22T05:21:45;19.90;91.70
58519;DHT22;44310;48.106;12.008;2022-10-22T05:24:12;19.90;91.70
58519;DHT22;44310;48.106;12.008;2022-10-22T05:26:40;19.90;91.60
58519;DHT22;44310;48.106;12.008;2022-10-22T05:29:07;19.90;91.60
58519;DHT22;44310;48.106;12.008;2022-10-22T05:31:34;19.80;91.60
58519;DHT22;44310;48.106;12.008;2022-10-22T05:34:01;19.80;91.50
58519;DHT22;44310;48.106;12.008;2022-10-22T05:36:28;19.80;91.50
58519;DHT22;44310;48.106;12.008;2022-10-22T05:38:56;19.80;91.50
58519;DHT22;44310;48.106;12.008;2022-10-22T05:41:24;19.80;91.50
58519;DHT22;44310;48.106;12.008;2022-10-22T05:43:59;19.90;91.50
58519;DHT22;44310;48.106;12.008;2022-10-22T05:46:28;19.80;91.50
58519;DHT22;44310;48.106;12.008;2022-10-22T05:48:58;19.90;91.50
58519;DHT22;44310;48.106;12.008;2022-10-22T05:51:26;19.90;91.50
58519;DHT22;44310;48.106;12.008;2022-10-22T05:53:56;19.90;91.50
58519;DHT22;44310;48.106;12.008;2022-10-22T05:56:25;19.90;91.80
58519;DHT22;44310;48.106;12.008;2022-10-22T05:58:52;19.90;91.50
58519;DHT22;44310;48.106;12.008;2022-10-22T06:01:23;19.90;91.60
58519;DHT22;44310;48.106;12.008;2022-10-22T06:03:55;19.90;91.60
58519;DHT22;44310;48.106;12.008;2022-10-22T06:06:48;19.90;91.50
58519;DHT22;44310;48.106;12.008;2022-10-22T06:09:32;19.90;91.50
58519;DHT22;44310;48.106;12.008;2022-10-22T06:12:00;19.90;91.50
58519;DHT22;44310;48.106;12.008;2022-10-22T06:14:28;19.80;91.40
58519;DHT22;44310;48.106;12.008;2022-10-22T06:16:58;19.80;91.40
58519;DHT22;44310;48.106;12.008;2022-10-22T06:19:25;19.80;91.40
58519;DHT22;44310;48.106;12.008;2022-10-22T06:21:53;19.80;91.30
58519;DHT22;44310;48.106;12.008;2022-10-22T06:24:20;19.80;91.30
58519;DHT22;44310;48.106;12.008;2022-10-22T06:26:51;19.80;91.30
58519;DHT22;44310;48.106;12.008;2022-10-22T06:29:18;19.80;91.30
58519;DHT22;44310;48.106;12.008;2022-10-22T06:31:45;19.80;91.30
58519;DHT22;44310;48.106;12.008;2022-10-22T06:34:13;19.80;91.30
58519;DHT22;44310;48.106;12.008;2022-10-22T06:36:41;19.80;91.20
58519;DHT22;44310;48.106;12.008;2022-10-22T06:39:14;19.80;91.20
58519;DHT22;44310;48.106;12.008;2022-10-22T06:41:41;19.80;91.10
58519;DHT22;44310;48.106;12.008;2022-10-22T06:44:14;19.80;91.10
58519;DHT22;44310;48.106;12.008;2022-10-22T06:46:41;19.80;91.10
58519;DHT22;44310;48.106;12.008;2022-10-22T06:49:14;19.80;91.10
58519;DHT22;44310;48.106;12.008;2022-10-22T06:51:42;19.80;91.10
58519;DHT22;44310;48.106;12.008;2022-10-22T06:54:09;19.80;91.00
58519;DHT22;44310;48.106;12.008;2022-10-22T06:56:37;19.80;91.00
58519;DHT22;44310;48.106;12.008;2022-10-22T06:59:04;19.80;90.90
58519;DHT22;44310;48.106;12.008;2022-10-22T07:01:32;19.90;90.90
58519;DHT22;44310;48.106;12.008;2022-10-22T07:04:00;19.80;90.90
58519;DHT22;44310;48.106;12.008;2022-10-22T07:06:28;19.80;90.90
58519;DHT22;44310;48.106;12.008;2022-10-22T07:08:56;19.90;90.90
58519;DHT22;44310;48.106;12.008;2022-10-22T07:11:29;19.90;90.90
58519;DHT22;44310;48.106;12.008;2022-10-22T07:13:58;19.80;90.90
58519;DHT22;44310;48.106;12.008;2022-10-22T07:16:25;19.80;90.90
58519;DHT22;44310;48.106;12.008;2022-10-22T07:18:59;19.90;90.90
58519;DHT22;44310;48.106;12.008;2022-10-22T07:21:27;19.80;90.80
58519;DHT22;44310;48.106;12.008;2022-10-22T07:23:55;19.90;90.80
58519;DHT22;44310;48.106;12.008;2022-10-22T07:26:22;19.80;90.80
58519;DHT22;44310;48.106;12.008;2022-10-22T07:28:51;19.80;90.80
58519;DHT22;44310;48.106;12.008;2022-10-22T07:31:18;19.90;90.80
58519;DHT22;44310;48.106;12.008;2022-10-22T07:33:45;19.80;90.80
58519;DHT22;44310;48.106;12.008;2022-10-22T07:36:14;19.90;90.90
58519;DHT22;44310;48.106;12.008;2022-10-22T07:38:48;19.90;90.80
58519;DHT22;44310;48.106;12.008;2022-10-22T07:41:18;19.90;90.80
58519;DHT22;44310;48.106;12.008;2022-10-22T07:43:45;19.80;90.80
58519;DHT22;44310;48.106;12.008;2022-10-22T07:46:13;19.90;90.80
58519;DHT22;44310;48.106;12.008;2022-10-22T07:48:40;19.90;90.80
58519;DHT22;44310;48.106;12.008;2022-10-22T07:51:07;19.90;91.10
58519;DHT22;44310;48.106;12.008;2022-10-22T07:53:34;19.80;91.10
58519;DHT22;44310;48.106;12.008;2022-10-22T07:56:02;19.90;90.70
58519;DHT22;44310;48.106;12.008;2022-10-22T07:58:29;19.80;90.60
58519;DHT22;44310;48.106;12.008;2022-10-22T08:00:58;19.60;88.30
58519;DHT22;44310;48.106;12.008;2022-10-22T08:03:27;19.40;88.20
58519;DHT22;44310;48.106;12.008;2022-10-22T08:05:55;19.20;87.40
58519;DHT22;44310;48.106;12.008;2022-10-22T08:08:22;19.00;86.70
58519;DHT22;44310;48.106;12.008;2022-10-22T08:10:57;19.00;88.40
58519;DHT22;44310;48.106;12.008;2022-10-22T08:13:26;19.10;88.90
58519;DHT22;44310;48.106;12.008;2022-10-22T08:15:54;19.20;89.30
58519;DHT22;44310;48.106;12.008;2022-10-22T08:18:24;19.30;89.50
58519;DHT22;44310;48.106;12.008;2022-10-22T08:20:51;19.40;89.60
58519;DHT22;44310;48.106;12.008;2022-10-22T08:23:18;19.40;89.80
58519;DHT22;44310;48.106;12.008;2022-10-22T08:25:52;19.60;90.00
58519;DHT22;44310;48.106;12.008;2022-10-22T08:28:19;19.60;90.00
58519;DHT22;44310;48.106;12.008;2022-10-22T08:30:48;19.70;90.10
58519;DHT22;44310;48.106;12.008;2022-10-22T08:33:15;19.70;90.10
58519;DHT22;44310;48.106;12.008;2022-10-22T08:35:50;19.70;90.20
58519;DHT22;44310;48.106;12.008;2022-10-22T08:38:18;19.70;90.20
58519;DHT22;44310;48.106;12.008;2022-10-22T08:40:52;19.70;90.20
58519;DHT22;44310;48.106;12.008;2022-10-22T08:43:29;19.80;90.30
58519;DHT22;44310;48.106;12.008;2022-10-22T08:46:39;19.80;90.30
58519;DHT22;44310;48.106;12.008;2022-10-22T08:49:23;19.80;90.30
58519;DHT22;44310;48.106;12.008;2022-10-22T08:51:52;19.80;90.20
58519;DHT22;44310;48.106;12.008;2022-10-22T08:59:44;19.80;90.30
58519;DHT22;44310;48.106;12.008;2022-10-22T09:05:01;19.90;90.40
58519;DHT22;44310;48.106;12.008;2022-10-22T09:07:42;19.90;90.50
58519;DHT22;44310;48.106;12.008;2022-10-22T09:10:18;19.90;90.40
58519;DHT22;44310;48.106;12.008;2022-10-22T09:12:47;19.90;90.50
58519;DHT22;44310;48.106;12.008;2022-10-22T09:15:16;19.90;90.50
58519;DHT22;44310;48.106;12.008;2022-10-22T09:20:41;19.90;90.70
58519;DHT22;44310;48.106;12.008;2022-10-22T09:25:50;19.90;90.70
58519;DHT22;44310;48.106;12.008;2022-10-22T09:28:17;19.90;90.70
58519;DHT22;44310;48.106;12.008;2022-10-22T09:30:44;19.90;90.70
58519;DHT22;44310;48.106;12.008;2022-10-22T09:33:22;19.90;90.70
58519;DHT22;44310;48.106;12.008;2022-10-22T09:36:04;19.90;90.70
58519;DHT22;44310;48.106;12.008;2022-10-22T09:38:45;19.90;90.70
58519;DHT22;44310;48.106;12.008;2022-10-22T09:41:13;19.90;90.70
58519;DHT22;44310;48.106;12.008;2022-10-22T09:43:40;19.90;90.80
58519;DHT22;44310;48.106;12.008;2022-10-22T09:46:15;19.90;90.80
58519;DHT22;44310;48.106;12.008;2022-10-22T09:49:32;19.90;90.80
58519;DHT22;44310;48.106;12.008;2022-10-22T09:56:54;19.90;90.90
58519;DHT22;44310;48.106;12.008;2022-10-22T09:59:28;19.90;90.90
58519;DHT22;44310;48.106;12.008;2022-10-22T10:02:17;19.90;90.90
58519;DHT22;44310;48.106;12.008;2022-10-22T10:05:04;19.90;90.90
58519;DHT22;44310;48.106;12.008;2022-10-22T10:07:33;19.90;90.90
58519;DHT22;44310;48.106;12.008;2022-10-22T10:10:20;19.90;90.90
58519;DHT22;44310;48.106;12.008;2022-10-22T10:13:07;19.90;91.00
58519;DHT22;44310;48.106;12.008;2022-10-22T10:15:49;19.90;91.00
58519;DHT22;44310;48.106;12.008;2022-10-22T10:18:45;19.90;91.40
58519;DHT22;44310;48.106;12.008;2022-10-22T10:21:48;19.90;91.10
58519;DHT22;44310;48.106;12.008;2022-10-22T10:24:30;19.90;91.10
58519;DHT22;44310;48.106;12.008;2022-10-22T10:27:01;20.00;91.20
58519;DHT22;44310;48.106;12.008;2022-10-22T10:29:34;19.90;91.30
58519;DHT22;44310;48.106;12.008;2022-10-22T10:32:35;19.90;91.60
58519;DHT22;44310;48.106;12.008;2022-10-22T10:40:44;19.90;91.30
58519;DHT22;44310;48.106;12.008;2022-10-22T10:46:07;19.90;91.30
58519;DHT22;44310;48.106;12.008;2022-10-22T10:48:46;19.90;91.30
58519;DHT22;44310;48.106;12.008;2022-10-22T10:51:28;19.90;91.30
58519;DHT22;44310;48.106;12.008;2022-10-22T10:56:48;19.90;91.30
58519;DHT22;44310;48.106;12.008;2022-10-22T11:02:17;19.90;91.30
58519;DHT22;44310;48.106;12.008;2022-10-22T11:08:01;19.90;91.40
58519;DHT22;44310;48.106;12.008;2022-10-22T11:10:39;19.90;91.30
58519;DHT22;44310;48.106;12.008;2022-10-22T11:13:26;19.90;91.40
58519;DHT22;44310;48.106;12.008;2022-10-22T11:16:16;19.90;91.40
58519;DHT22;44310;48.106;12.008;2022-10-22T11:19:00;19.90;91.40
58519;DHT22;44310;48.106;12.008;2022-10-22T11:29:13;19.90;91.50
58519;DHT22;44310;48.106;12.008;2022-10-22T11:31:41;19.90;91.50
58519;DHT22;44310;48.106;12.008;2022-10-22T11:34:24;20.00;91.50
58519;DHT22;44310;48.106;12.008;2022-10-22T11:37:02;20.00;91.60
58519;DHT22;44310;48.106;12.008;2022-10-22T11:39:49;20.00;91.60
58519;DHT22;44310;48.106;12.008;2022-10-22T11:42:22;20.00;91.60
58519;DHT22;44310;48.106;12.008;2022-10-22T11:48:06;19.90;91.60
58519;DHT22;44310;48.106;12.008;2022-10-22T12:01:23;20.00;91.70
58519;DHT22;44310;48.106;12.008;2022-10-22T12:03:53;20.00;91.60
58519;DHT22;44310;48.106;12.008;2022-10-22T12:06:55;20.00;91.70
58519;DHT22;44310;48.106;12.008;2022-10-22T12:09:23;20.00;91.70
58519;DHT22;44310;48.106;12.008;2022-10-22T12:11:52;20.00;91.70
58519;DHT22;44310;48.106;12.008;2022-10-22T12:14:33;20.00;91.70
58519;DHT22;44310;48.106;12.008;2022-10-22T12:17:13;20.10;91.80
58519;DHT22;44310;48.106;12.008;2022-10-22T12:19:50;20.10;91.80
58519;DHT22;44310;48.106;12.008;2022-10-22T12:22:29;20.10;91.80
58519;DHT22;44310;48.106;12.008;2022-10-22T12:25:05;20.10;91.70
58519;DHT22;44310;48.106;12.008;2022-10-22T12:27:39;20.00;91.50
58519;DHT22;44310;48.106;12.008;2022-10-22T12:30:33;19.90;90.30
58519;DHT22;44310;48.106;12.008;2022-10-22T12:33:03;19.70;90.90
58519;DHT22;44310;48.106;12.008;2022-10-22T12:35:41;19.80;91.40
58519;DHT22;44310;48.106;12.008;2022-10-22T12:38:14;19.90;91.70
58519;DHT22;44310;48.106;12.008;2022-10-22T12:40:43;19.90;91.70
58519;DHT22;44310;48.106;12.008;2022-10-22T12:43:33;19.80;90.40
58519;DHT22;44310;48.106;12.008;2022-10-22T12:46:00;19.60;90.50
58519;DHT22;44310;48.106;12.008;2022-10-22T12:48:29;19.40;90.10
58519;DHT22;44310;48.106;12.008;2022-10-22T12:51:01;19.20;90.10
58519;DHT22;44310;48.106;12.008;2022-10-22T12:53:34;19.30;91.00
58519;DHT22;44310;48.106;12.008;2022-10-22T12:56:11;19.30;91.30
58519;DHT22;44310;48.106;12.008;2022-10-22T12:58:52;19.50;92.00
58519;DHT22;44310;48.106;12.008;2022-10-22T13:01:21;19.70;92.50
58519;DHT22;44310;48.106;12.008;2022-10-22T13:03:50;19.90;92.80
58519;DHT22;44310;48.106;12.008;2022-10-22T13:08:55;20.10;93.20
58519;DHT22;44310;48.106;12.008;2022-10-22T13:11:22;20.10;93.20
58519;DHT22;44310;48.106;12.008;2022-10-22T13:13:49;20.20;93.50
58519;DHT22;44310;48.106;12.008;2022-10-22T13:16:24;20.10;93.40
58519;DHT22;44310;48.106;12.008;2022-10-22T13:18:52;19.90;91.40
58519;DHT22;44310;48.106;12.008;2022-10-22T13:21:32;19.80;92.40
58519;DHT22;44310;48.106;12.008;2022-10-22T13:24:02;19.90;93.20
58519;DHT22;44310;48.106;12.008;2022-10-22T13:26:48;19.90;93.50
58519;DHT22;44310;48.106;12.008;2022-10-22T13:29:18;20.00;93.80
58519;DHT22;44310;48.106;12.008;2022-10-22T13:31:48;20.00;94.00
58519;DHT22;44310;48.106;12.008;2022-10-22T13:34:21;20.10;94.10
58519;DHT22;44310;48.106;12.008;2022-10-22T13:36:49;20.00;94.00
58519;DHT22;44310;48.106;12.008;2022-10-22T13:39:17;19.90;93.20
58519;DHT22;44310;48.106;12.008;2022-10-22T13:41:44;19.80;93.40
58519;DHT22;44310;48.106;12.008;2022-10-22T13:44:11;19.80;93.40
58519;DHT22;44310;48.106;12.008;2022-10-22T13:46:39;19.80;93.40
58519;DHT22;44310;48.106;12.008;2022-10-22T13:49:15;19.60;93.30
58519;DHT22;44310;48.106;12.008;2022-10-22T13:51:42;19.50;91.90
58519;DHT22;44310;48.106;12.008;2022-10-22T13:54:15;19.30;91.60
58519;DHT22;44310;48.106;12.008;2022-10-22T13:56:42;19.20;91.70
58519;DHT22;44310;48.106;12.008;2022-10-22T13:59:09;19.20;92.10
58519;DHT22;44310;48.106;12.008;2022-10-22T14:01:37;19.30;92.70
58519;DHT22;44310;48.106;12.008;2022-10-22T14:04:06;19.40;92.80
58519;DHT22;44310;48.106;12.008;2022-10-22T14:06:36;19.50;92.90
58519;DHT22;44310;48.106;12.008;2022-10-22T14:09:12;19.50;92.90
58519;DHT22;44310;48.106;12.008;2022-10-22T14:11:40;19.60;92.80
58519;DHT22;44310;48.106;12.008;2022-10-22T14:14:08;19.60;92.80
58519;DHT22;44310;48.106;12.008;2022-10-22T14:16:40;19.60;92.60
58519;DHT22;44310;48.106;12.008;2022-10-22T14:19:12;19.60;92.40
58519;DHT22;44310;48.106;12.008;2022-10-22T14:21:40;19.50;92.00
58519;DHT22;44310;48.106;12.008;2022-10-22T14:24:09;19.40;91.50
58519;DHT22;44310;48.106;12.008;2022-10-22T14:26:39;19.30;91.40
58519;DHT22;44310;48.106;12.008;2022-10-22T14:29:07;19.20;91.70
58519;DHT22;44310;48.106;12.008;2022-10-22T14:31:41;19.20;91.30
58519;DHT22;44310;48.106;12.008;2022-10-22T14:34:13;19.10;91.50
58519;DHT22;44310;48.106;12.008;2022-10-22T14:36:40;19.10;91.20
58519;DHT22;44310;48.106;12.008;2022-10-22T14:39:10;19.00;91.20
58519;DHT22;44310;48.106;12.008;2022-10-22T14:41:37;19.00;91.10
58519;DHT22;44310;48.106;12.008;2022-10-22T14:44:05;19.00;91.10
58519;DHT22;44310;48.106;12.008;2022-10-22T14:46:32;19.00;91.10
58519;DHT22;44310;48.106;12.008;2022-10-22T14:48:59;19.00;91.00
58519;DHT22;44310;48.106;12.008;2022-10-22T14:51:26;19.00;91.00
58519;DHT22;44310;48.106;12.008;2022-10-22T14:53:53;19.00;90.70
58519;DHT22;44310;48.106;12.008;2022-10-22T14:56:20;18.90;90.70
58519;DHT22;44310;48.106;12.008;2022-10-22T14:58:48;19.00;90.70
58519;DHT22;44310;48.106;12.008;2022-10-22T15:01:15;18.90;91.00
58519;DHT22;44310;48.106;12.008;2022-10-22T15:03:42;18.90;90.70
58519;DHT22;44310;48.106;12.008;2022-10-22T15:06:09;18.90;90.70
58519;DHT22;44310;48.106;12.008;2022-10-22T15:08:37;18.90;90.90
58519;DHT22;44310;48.106;12.008;2022-10-22T15:11:07;18.90;90.80
58519;DHT22;44310;48.106;12.008;2022-10-22T15:13:34;18.90;90.90
58519;DHT22;44310;48.106;12.008;2022-10-22T15:16:04;18.90;90.90
58519;DHT22;44310;48.106;12.008;2022-10-22T15:18:32;18.90;91.10
58519;DHT22;44310;48.106;12.008;2022-10-22T15:21:05;18.90;90.70
58519;DHT22;44310;48.106;12.008;2022-10-22T15:23:32;18.90;90.80
58519;DHT22;44310;48.106;12.008;2022-10-22T15:26:00;18.90;90.70
58519;DHT22;44310;48.106;12.008;2022-10-22T15:28:27;18.90;90.70
58519;DHT22;44310;48.106;12.008;2022-10-22T15:30:59;18.80;90.60
58519;DHT22;44310;48.106;12.008;2022-10-22T15:33:27;18.80;90.60
58519;DHT22;44310;48.106;12.008;2022-10-22T15:35:56;18.80;90.80
58519;DHT22;44310;48.106;12.008;2022-10-22T15:38:27;18.80;90.80
58519;DHT22;44310;48.106;12.008;2022-10-22T15:41:03;18.80;90.90
58519;DHT22;44310;48.106;12.008;2022-10-22T15:43:32;18.80;90.90
58519;DHT22;44310;48.106;12.008;2022-10-22T15:46:18;18.80;90.80
58519;DHT22;44310;48.106;12.008;2022-10-22T15:48:45;18.70;91.00
58519;DHT22;44310;48.106;12.008;2022-10-22T15:51:15;18.70;90.80
58519;DHT22;44310;48.106;12.008;2022-10-22T15:53:43;18.70;90.70
58519;DHT22;44310;48.106;12.008;2022-10-22T15:56:10;18.70;90.90
58519;DHT22;44310;48.106;12.008;2022-10-22T15:58:37;18.70;90.80
58519;DHT22;44310;48.106;12.008;2022-10-22T16:01:10;18.60;90.60
58519;DHT22;44310;48.106;12.008;2022-10-22T16:03:38;18.60;90.50
58519;DHT22;44310;48.106;12.008;2022-10-22T16:06:07;18.50;90.40
58519;DHT22;44310;48.106;12.008;2022-10-22T16:08:35;18.40;90.70
58519;DHT22;44310;48.106;12.008;2022-10-22T16:11:03;18.40;90.40
58519;DHT22;44310;48.106;12.008;2022-10-22T16:13:30;18.40;90.30
58519;DHT22;44310;48.106;12.008;2022-10-22T16:15:58;18.40;90.50
58519;DHT22;44310;48.106;12.008;2022-10-22T16:18:25;18.40;90.70
58519;DHT22;44310;48.106;12.008;2022-10-22T16:20:52;18.50;90.60
58519;DHT22;44310;48.106;12.008;2022-10-22T16:23:19;18.50;89.60
58519;DHT22;44310;48.106;12.008;2022-10-22T16:25:46;18.40;90.70
58519;DHT22;44310;48.106;12.008;2022-10-22T16:28:15;18.50;90.90
58519;DHT22;44310;48.106;12.008;2022-10-22T16:30:42;18.60;91.00
58519;DHT22;44310;48.106;12.008;2022-10-22T16:33:09;18.80;91.60
58519;DHT22;44310;48.106;12.008;2022-10-22T16:35:41;19.00;91.40
58519;DHT22;44310;48.106;12.008;2022-10-22T16:38:09;19.20;91.30
58519;DHT22;44310;48.106;12.008;2022-10-22T16:40:37;19.30;91.30
58519;DHT22;44310;48.106;12.008;2022-10-22T16:43:04;19.40;91.40
58519;DHT22;44310;48.106;12.008;2022-10-22T16:45:32;19.50;91.40
58519;DHT22;44310;48.106;12.008;2022-10-22T16:47:59;19.60;91.50
58519;DHT22;44310;48.106;12.008;2022-10-22T16:50:26;19.60;91.50
58519;DHT22;44310;48.106;12.008;2022-10-22T16:52:53;19.70;91.50
58519;DHT22;44310;48.106;12.008;2022-10-22T16:55:20;19.70;91.60
58519;DHT22;44310;48.106;12.008;2022-10-22T16:57:51;19.70;91.60
58519;DHT22;44310;48.106;12.008;2022-10-22T17:00:19;19.80;91.70
58519;DHT22;44310;48.106;12.008;2022-10-22T17:02:51;19.80;91.80
58519;DHT22;44310;48.106;12.008;2022-10-22T17:05:19;19.80;91.80
58519;DHT22;44310;48.106;12.008;2022-10-22T17:07:47;19.90;91.90
58519;DHT22;44310;48.106;12.008;2022-10-22T17:10:15;19.80;91.80